createdAt,value
2022-10-05T00:00:18.429Z,0.00
2022-10-05T00:01:18.465Z,0.00
2022-10-05T00:02:18.451Z,0.00
2022-10-05T00:03:18.399Z,0.00
2022-10-05T00:04:18.404Z,0.00
2022-10-05T00:05:18.432Z,0.00
2022-10-05T00:06:18.380Z,0.00
2022-10-05T00:07:18.399Z,0.00
2022-10-05T00:08:18.366Z,0.00
2022-10-05T00:09:18.369Z,0.00
2022-10-05T00:10:18.367Z,0.00
2022-10-05T00:11:18.353Z,0.00
2022-10-05T00:12:18.377Z,0.00
2022-10-05T00:13:18.333Z,0.00
2022-10-05T00:14:18.326Z,0.00
2022-10-05T00:15:18.321Z,0.00
2022-10-05T00:16:18.342Z,0.00
2022-10-05T00:17:18.337Z,0.00
2022-10-05T00:18:18.285Z,0.00
2022-10-05T00:19:18.288Z,0.00
2022-10-05T00:20:18.280Z,0.00
2022-10-05T00:21:18.271Z,0.00
2022-10-05T00:22:18.269Z,0.00
2022-10-05T00:23:18.283Z,0.00
2022-10-05T00:24:18.249Z,0.00
2022-10-05T00:25:18.242Z,0.00
2022-10-05T00:26:18.236Z,0.00
2022-10-05T00:27:18.226Z,0.00
2022-10-05T00:28:18.328Z,0.00
2022-10-05T00:29:18.220Z,0.00
2022-10-05T00:30:18.211Z,0.00
2022-10-05T00:31:18.223Z,0.00
2022-10-05T00:32:18.190Z,0.00
2022-10-05T00:33:18.214Z,0.00
2022-10-05T00:34:18.182Z,0.00
2022-10-05T00:35:18.173Z,0.00
2022-10-05T00:36:18.160Z,0.00
2022-10-05T00:37:18.147Z,0.00
2022-10-05T00:38:18.174Z,0.00
2022-10-05T00:39:18.143Z,0.00
2022-10-05T00:40:18.144Z,0.00
2022-10-05T00:41:18.154Z,0.00
2022-10-05T00:42:18.119Z,0.00
2022-10-05T00:43:18.259Z,0.00
2022-10-05T00:44:18.157Z,0.00
2022-10-05T00:45:18.129Z,0.00
2022-10-05T00:46:18.179Z,0.00
2022-10-05T00:47:18.100Z,0.00
2022-10-05T00:48:18.136Z,0.00
2022-10-05T00:49:18.071Z,0.00
2022-10-05T00:50:18.052Z,0.00
2022-10-05T00:51:18.058Z,0.00
2022-10-05T00:52:18.040Z,0.00
2022-10-05T00:53:18.058Z,0.00
2022-10-05T00:54:18.716Z,0.00
2022-10-05T00:55:19.023Z,0.00
2022-10-05T00:56:18.009Z,0.00
2022-10-05T00:57:18.003Z,0.00
2022-10-05T00:58:18.022Z,0.00
2022-10-05T00:59:17.986Z,0.00
2022-10-05T01:00:17.977Z,0.00
2022-10-05T01:01:18.007Z,0.00
2022-10-05T01:02:18.005Z,0.00
2022-10-05T01:03:17.974Z,0.00
2022-10-05T01:04:17.944Z,0.00
2022-10-05T01:05:17.938Z,0.00
2022-10-05T01:06:17.933Z,0.00
2022-10-05T01:07:17.920Z,0.00
2022-10-05T01:08:17.946Z,0.00
2022-10-05T01:09:17.912Z,0.00
2022-10-05T01:10:17.900Z,0.00
2022-10-05T01:11:17.888Z,0.00
2022-10-05T01:12:17.883Z,0.00
2022-10-05T01:13:17.905Z,0.00
2022-10-05T01:14:17.878Z,0.00
2022-10-05T01:15:17.873Z,0.00
2022-10-05T01:16:17.895Z,0.00
2022-10-05T01:17:17.849Z,0.00
2022-10-05T01:18:17.871Z,0.00
2022-10-05T01:19:17.831Z,0.00
2022-10-05T01:20:17.830Z,0.00
2022-10-05T01:21:17.817Z,0.00
2022-10-05T01:22:17.809Z,0.00
2022-10-05T01:23:17.829Z,0.00
2022-10-05T01:24:17.800Z,0.00
2022-10-05T01:25:17.790Z,0.00
2022-10-05T01:26:17.795Z,0.00
2022-10-05T01:27:17.775Z,0.00
2022-10-05T01:28:17.875Z,0.00
2022-10-05T01:29:17.761Z,0.00
2022-10-05T01:30:17.756Z,0.00
2022-10-05T01:31:17.780Z,0.00
2022-10-05T01:32:17.745Z,0.00
2022-10-05T01:33:17.770Z,0.00
2022-10-05T01:34:17.735Z,0.00
2022-10-05T01:35:17.716Z,0.00
2022-10-05T01:36:17.705Z,0.00
2022-10-05T01:37:17.704Z,0.00
2022-10-05T01:38:17.697Z,0.00
2022-10-05T01:39:17.712Z,0.00
2022-10-05T01:40:17.677Z,0.00
2022-10-05T01:41:17.673Z,0.00
2022-10-05T01:42:17.659Z,0.00
2022-10-05T01:43:17.652Z,0.00
2022-10-05T01:44:17.675Z,0.00
2022-10-05T01:45:17.641Z,0.00
2022-10-05T01:46:17.692Z,0.00
2022-10-05T01:47:17.625Z,0.00
2022-10-05T01:48:17.621Z,0.00
2022-10-05T01:49:17.637Z,0.00
2022-10-05T01:50:17.596Z,0.00
2022-10-05T01:51:17.634Z,0.00
2022-10-05T01:52:17.586Z,0.00
2022-10-05T01:53:17.579Z,0.00
2022-10-05T01:54:17.603Z,0.00
2022-10-05T01:55:17.564Z,0.00
2022-10-05T01:56:17.549Z,0.00
2022-10-05T01:57:18.551Z,0.00
2022-10-05T01:58:17.537Z,0.00
2022-10-05T01:59:17.558Z,0.00
2022-10-05T02:00:17.533Z,0.00
2022-10-05T02:01:17.576Z,0.00
2022-10-05T02:02:17.583Z,0.00
2022-10-05T02:03:17.501Z,0.00
2022-10-05T02:04:35.575Z,0.00
2022-10-05T02:05:19.492Z,0.00
2022-10-05T02:06:17.476Z,0.00
2022-10-05T02:07:17.470Z,0.00
2022-10-05T02:08:17.463Z,0.00
2022-10-05T02:09:17.495Z,0.00
2022-10-05T02:10:17.451Z,0.00
2022-10-05T02:11:17.440Z,0.00
2022-10-05T02:12:17.443Z,0.00
2022-10-05T02:13:17.431Z,0.00
2022-10-05T02:14:17.471Z,0.00
2022-10-05T02:15:17.415Z,0.00
2022-10-05T02:16:17.451Z,0.00
2022-10-05T02:17:17.402Z,0.00
2022-10-05T02:18:17.389Z,0.00
2022-10-05T02:19:17.384Z,0.00
2022-10-05T02:20:17.402Z,0.00
2022-10-05T02:21:17.369Z,0.00
2022-10-05T02:22:17.358Z,0.00
2022-10-05T02:23:17.357Z,0.00
2022-10-05T02:24:17.347Z,0.00
2022-10-05T02:25:17.368Z,0.00
2022-10-05T02:26:17.342Z,0.00
2022-10-05T02:27:17.328Z,0.00
2022-10-05T02:28:17.371Z,0.00
2022-10-05T02:29:17.354Z,0.00
2022-10-05T02:30:17.321Z,0.00
2022-10-05T02:31:17.342Z,0.00
2022-10-05T02:32:17.285Z,0.00
2022-10-05T02:33:17.279Z,0.00
2022-10-05T02:34:17.269Z,0.00
2022-10-05T02:35:17.293Z,0.00
2022-10-05T02:36:17.351Z,0.00
2022-10-05T02:37:17.247Z,0.00
2022-10-05T02:38:17.249Z,0.00
2022-10-05T02:39:17.244Z,0.00
2022-10-05T02:40:17.260Z,0.00
2022-10-05T02:41:17.223Z,0.00
2022-10-05T02:42:17.207Z,0.00
2022-10-05T02:43:17.210Z,0.00
2022-10-05T02:44:17.196Z,0.00
2022-10-05T02:45:17.191Z,0.00
2022-10-05T02:46:17.240Z,0.00
2022-10-05T02:47:17.177Z,0.00
2022-10-05T02:48:17.170Z,0.00
2022-10-05T02:49:17.158Z,0.00
2022-10-05T02:50:17.153Z,0.00
2022-10-05T02:51:17.174Z,0.00
2022-10-05T02:52:17.136Z,0.00
2022-10-05T02:53:17.134Z,0.00
2022-10-05T02:54:17.126Z,0.00
2022-10-05T02:55:17.112Z,0.00
2022-10-05T02:56:17.134Z,0.00
2022-10-05T02:57:17.097Z,0.00
2022-10-05T02:58:17.101Z,0.00
2022-10-05T02:59:17.092Z,0.00
2022-10-05T03:00:17.073Z,0.00
2022-10-05T03:01:17.127Z,0.00
2022-10-05T03:02:17.119Z,0.00
2022-10-05T03:03:17.052Z,0.00
2022-10-05T03:04:17.045Z,0.00
2022-10-05T03:05:17.033Z,0.00
2022-10-05T03:06:17.055Z,0.00
2022-10-05T03:07:17.034Z,0.00
2022-10-05T03:08:17.023Z,0.00
2022-10-05T03:09:17.013Z,0.00
2022-10-05T03:10:17.000Z,0.00
2022-10-05T03:11:17.020Z,0.00
2022-10-05T03:12:16.984Z,0.00
2022-10-05T03:13:16.977Z,0.00
2022-10-05T03:14:16.973Z,0.00
2022-10-05T03:15:16.967Z,0.00
2022-10-05T03:16:17.085Z,0.00
2022-10-05T03:17:16.948Z,0.00
2022-10-05T03:18:16.937Z,0.00
2022-10-05T03:19:16.938Z,0.00
2022-10-05T03:20:16.926Z,0.00
2022-10-05T03:21:16.944Z,0.00
2022-10-05T03:22:16.921Z,0.00
2022-10-05T03:23:16.900Z,0.00
2022-10-05T03:24:16.895Z,0.00
2022-10-05T03:25:16.885Z,0.00
2022-10-05T03:26:16.898Z,0.00
2022-10-05T03:27:16.867Z,0.00
2022-10-05T03:28:16.884Z,0.00
2022-10-05T03:29:16.855Z,0.00
2022-10-05T03:30:16.842Z,0.00
2022-10-05T03:31:16.938Z,0.00
2022-10-05T03:32:16.833Z,0.00
2022-10-05T03:33:16.822Z,0.00
2022-10-05T03:34:16.808Z,0.00
2022-10-05T03:35:16.806Z,0.00
2022-10-05T03:36:16.824Z,0.00
2022-10-05T03:37:16.789Z,0.00
2022-10-05T03:38:16.774Z,0.00
2022-10-05T03:39:17.774Z,0.00
2022-10-05T03:40:16.761Z,0.00
2022-10-05T03:41:16.781Z,0.00
2022-10-05T03:42:16.748Z,0.00
2022-10-05T03:43:16.737Z,0.00
2022-10-05T03:44:16.728Z,0.00
2022-10-05T03:45:16.716Z,0.00
2022-10-05T03:46:16.803Z,0.00
2022-10-05T03:47:16.710Z,0.00
2022-10-05T03:48:16.705Z,0.00
2022-10-05T03:49:16.695Z,0.00
2022-10-05T03:50:16.687Z,0.00
2022-10-05T03:51:16.709Z,0.00
2022-10-05T03:52:16.668Z,0.00
2022-10-05T03:53:16.659Z,0.00
2022-10-05T03:54:16.655Z,0.00
2022-10-05T03:55:16.646Z,0.00
2022-10-05T03:56:16.709Z,0.00
2022-10-05T03:57:16.639Z,0.00
2022-10-05T03:58:16.631Z,0.00
2022-10-05T03:59:49.481Z,0.00
2022-10-05T04:00:16.614Z,0.00
2022-10-05T04:01:16.687Z,0.00
2022-10-05T04:02:16.637Z,0.00
2022-10-05T04:03:16.596Z,0.00
2022-10-05T04:04:16.582Z,0.00
2022-10-05T04:05:16.574Z,0.00
2022-10-05T04:06:16.630Z,0.00
2022-10-05T04:07:16.561Z,0.00
2022-10-05T04:08:16.552Z,0.00
2022-10-05T04:09:16.551Z,0.00
2022-10-05T04:10:16.558Z,0.00
2022-10-05T04:11:16.570Z,0.00
2022-10-05T04:12:16.623Z,0.00
2022-10-05T04:13:17.529Z,0.00
2022-10-05T04:14:16.519Z,0.00
2022-10-05T04:15:18.873Z,0.00
2022-10-05T04:16:17.566Z,0.00
2022-10-05T04:17:16.503Z,0.00
2022-10-05T04:18:16.482Z,0.00
2022-10-05T04:19:16.479Z,0.00
2022-10-05T04:20:16.471Z,0.00
2022-10-05T04:21:20.063Z,0.00
2022-10-05T04:22:18.454Z,0.00
2022-10-05T04:23:16.456Z,0.00
2022-10-05T04:24:16.446Z,0.00
2022-10-05T04:25:16.450Z,0.00
2022-10-05T04:26:16.419Z,0.00
2022-10-05T04:27:16.426Z,0.00
2022-10-05T04:28:16.550Z,0.00
2022-10-05T04:29:16.395Z,0.00
2022-10-05T04:30:16.421Z,0.00
2022-10-05T04:31:16.436Z,0.00
2022-10-05T04:32:16.372Z,0.00
2022-10-05T04:33:16.373Z,0.00
2022-10-05T04:34:16.359Z,0.00
2022-10-05T04:35:16.381Z,0.00
2022-10-05T04:36:16.345Z,0.00
2022-10-05T04:37:16.333Z,0.00
2022-10-05T04:38:16.328Z,0.00
2022-10-05T04:39:16.318Z,0.00
2022-10-05T04:40:16.344Z,0.00
2022-10-05T04:41:16.311Z,0.00
2022-10-05T04:42:16.310Z,0.00
2022-10-05T04:43:16.291Z,0.00
2022-10-05T04:44:16.288Z,0.00
2022-10-05T04:45:16.269Z,0.00
2022-10-05T04:46:16.326Z,0.00
2022-10-05T04:47:16.306Z,0.00
2022-10-05T04:48:17.275Z,0.00
2022-10-05T04:49:16.267Z,0.00
2022-10-05T04:50:16.265Z,0.00
2022-10-05T04:51:16.243Z,0.00
2022-10-05T04:52:16.227Z,0.00
2022-10-05T04:53:16.238Z,0.00
2022-10-05T04:54:16.204Z,0.00
2022-10-05T04:55:16.244Z,0.00
2022-10-05T04:56:16.206Z,0.00
2022-10-05T04:57:16.196Z,0.00
2022-10-05T04:58:16.187Z,0.00
2022-10-05T04:59:16.177Z,0.00
2022-10-05T05:00:16.211Z,0.00
2022-10-05T05:01:16.193Z,0.00
2022-10-05T05:02:16.153Z,0.00
2022-10-05T05:03:16.145Z,0.00
2022-10-05T05:04:16.197Z,4.00
2022-10-05T05:05:16.162Z,0.00
2022-10-05T05:06:17.773Z,4.00
2022-10-05T05:07:17.113Z,0.00
2022-10-05T05:08:16.103Z,4.00
2022-10-05T05:09:16.097Z,4.00
2022-10-05T05:10:16.121Z,4.00
2022-10-05T05:11:19.047Z,4.00
2022-10-05T05:12:18.077Z,4.00
2022-10-05T05:13:16.065Z,8.00
2022-10-05T05:14:16.062Z,8.00
2022-10-05T05:15:16.055Z,12.00
2022-10-05T05:16:16.176Z,12.00
2022-10-05T05:17:16.038Z,12.00
2022-10-05T05:18:16.048Z,12.00
2022-10-05T05:19:16.021Z,16.00
2022-10-05T05:20:16.012Z,20.00
2022-10-05T05:21:16.028Z,24.00
2022-10-05T05:22:15.993Z,24.00
2022-10-05T05:23:15.986Z,28.00
2022-10-05T05:24:15.986Z,36.00
2022-10-05T05:25:15.972Z,40.00
2022-10-05T05:26:15.987Z,44.00
2022-10-05T05:27:15.952Z,48.00
2022-10-05T05:28:16.019Z,52.00
2022-10-05T05:29:15.944Z,64.00
2022-10-05T05:30:15.936Z,64.00
2022-10-05T05:31:16.053Z,72.00
2022-10-05T05:32:15.919Z,72.00
2022-10-05T05:33:15.912Z,76.00
2022-10-05T05:34:15.902Z,92.00
2022-10-05T05:35:15.904Z,100.00
2022-10-05T05:36:20.774Z,100.00
2022-10-05T05:37:17.882Z,112.00
2022-10-05T05:38:15.882Z,124.00
2022-10-05T05:39:15.867Z,132.00
2022-10-05T05:40:15.882Z,144.00
2022-10-05T05:41:15.879Z,148.00
2022-10-05T05:42:15.845Z,164.00
2022-10-05T05:43:15.831Z,172.00
2022-10-05T05:44:15.833Z,172.00
2022-10-05T05:45:15.822Z,208.00
2022-10-05T05:46:15.894Z,220.00
2022-10-05T05:47:15.838Z,228.00
2022-10-05T05:48:15.884Z,240.00
2022-10-05T05:49:15.794Z,268.00
2022-10-05T05:50:15.784Z,288.00
2022-10-05T05:51:15.799Z,312.00
2022-10-05T05:52:15.772Z,336.00
2022-10-05T05:53:15.766Z,356.00
2022-10-05T05:54:15.748Z,368.00
2022-10-05T05:55:15.744Z,412.00
2022-10-05T05:56:15.762Z,424.00
2022-10-05T05:57:15.725Z,448.00
2022-10-05T05:58:15.718Z,488.00
2022-10-05T05:59:15.714Z,528.00
2022-10-05T06:00:15.704Z,584.00
2022-10-05T06:01:31.827Z,620.00
2022-10-05T06:02:17.726Z,608.00
2022-10-05T06:03:15.798Z,556.00
2022-10-05T06:04:15.716Z,516.00
2022-10-05T06:05:15.668Z,536.00
2022-10-05T06:06:15.702Z,564.00
2022-10-05T06:07:15.653Z,544.00
2022-10-05T06:08:15.643Z,508.00
2022-10-05T06:09:15.651Z,508.00
2022-10-05T06:10:15.624Z,512.00
2022-10-05T06:11:15.649Z,516.00
2022-10-05T06:12:15.611Z,528.00
2022-10-05T06:13:15.609Z,544.00
2022-10-05T06:14:15.584Z,552.00
2022-10-05T06:15:16.585Z,564.00
2022-10-05T06:16:15.676Z,588.00
2022-10-05T06:17:15.577Z,612.00
2022-10-05T06:18:16.564Z,624.00
2022-10-05T06:19:15.560Z,832.00
2022-10-05T06:20:15.644Z,1028.00
2022-10-05T06:21:15.544Z,1124.00
2022-10-05T06:22:15.579Z,1268.00
2022-10-05T06:23:15.528Z,1268.00
2022-10-05T06:24:15.533Z,1684.00
2022-10-05T06:25:15.526Z,1292.00
2022-10-05T06:26:15.507Z,1792.00
2022-10-05T06:27:15.554Z,1788.00
2022-10-05T06:28:15.569Z,1712.00
2022-10-05T06:29:15.497Z,1764.00
2022-10-05T06:30:15.473Z,1692.00
2022-10-05T06:31:15.510Z,1688.00
2022-10-05T06:32:15.463Z,1584.00
2022-10-05T06:33:15.451Z,1684.00
2022-10-05T06:34:15.471Z,1704.00
2022-10-05T06:35:15.445Z,1456.00
2022-10-05T06:36:15.481Z,1476.00
2022-10-05T06:37:15.423Z,1404.00
2022-10-05T06:38:15.426Z,1436.00
2022-10-05T06:39:15.414Z,1324.00
2022-10-05T06:40:15.411Z,1532.00
2022-10-05T06:41:15.447Z,1508.00
2022-10-05T06:42:15.387Z,1372.00
2022-10-05T06:43:15.381Z,1332.00
2022-10-05T06:44:15.383Z,1188.00
2022-10-05T06:45:15.368Z,1116.00
2022-10-05T06:46:15.434Z,1020.00
2022-10-05T06:47:15.385Z,924.00
2022-10-05T06:48:15.352Z,832.00
2022-10-05T06:49:15.341Z,780.00
2022-10-05T06:50:15.334Z,772.00
2022-10-05T06:51:15.323Z,748.00
2022-10-05T06:52:15.336Z,724.00
2022-10-05T06:53:15.342Z,708.00
2022-10-05T06:54:15.298Z,692.00
2022-10-05T06:55:15.292Z,708.00
2022-10-05T06:56:15.278Z,696.00
2022-10-05T06:57:15.302Z,660.00
2022-10-05T06:58:15.261Z,612.00
2022-10-05T06:59:15.254Z,544.00
2022-10-05T07:00:15.241Z,508.00
2022-10-05T07:01:16.273Z,508.00
2022-10-05T07:02:15.297Z,528.00
2022-10-05T07:03:15.225Z,552.00
2022-10-05T07:04:15.213Z,548.00
2022-10-05T07:05:15.207Z,540.00
2022-10-05T07:06:15.210Z,540.00
2022-10-05T07:07:15.214Z,520.00
2022-10-05T07:08:15.184Z,492.00
2022-10-05T07:09:15.179Z,560.00
2022-10-05T07:10:15.180Z,500.00
2022-10-05T07:11:15.163Z,472.00
2022-10-05T07:12:15.185Z,448.00
2022-10-05T07:13:15.142Z,500.00
2022-10-05T07:14:15.140Z,540.00
2022-10-05T07:15:15.129Z,552.00
2022-10-05T07:16:15.192Z,560.00
2022-10-05T07:17:15.130Z,604.00
2022-10-05T07:18:15.103Z,668.00
2022-10-05T07:19:15.100Z,668.00
2022-10-05T07:20:15.142Z,648.00
2022-10-05T07:21:15.114Z,640.00
2022-10-05T07:22:15.075Z,680.00
2022-10-05T07:23:15.067Z,708.00
2022-10-05T07:24:15.079Z,724.00
2022-10-05T07:25:15.059Z,744.00
2022-10-05T07:26:15.046Z,784.00
2022-10-05T07:27:15.063Z,828.00
2022-10-05T07:28:15.087Z,912.00
2022-10-05T07:29:15.018Z,960.00
2022-10-05T07:30:15.025Z,1028.00
2022-10-05T07:31:15.082Z,1084.00
2022-10-05T07:32:15.029Z,1228.00
2022-10-05T07:33:14.985Z,1136.00
2022-10-05T07:34:14.982Z,1060.00
2022-10-05T07:35:14.979Z,1236.00
2022-10-05T07:36:14.978Z,1400.00
2022-10-05T07:37:14.980Z,1980.00
2022-10-05T07:38:14.968Z,2060.00
2022-10-05T07:39:14.947Z,2096.00
2022-10-05T07:40:14.977Z,2220.00
2022-10-05T07:41:14.935Z,2272.00
2022-10-05T07:42:14.961Z,2312.00
2022-10-05T07:43:14.921Z,2348.00
2022-10-05T07:44:14.907Z,2380.00
2022-10-05T07:45:14.937Z,2328.00
2022-10-05T07:46:15.008Z,2416.00
2022-10-05T07:47:14.893Z,2460.00
2022-10-05T07:48:14.880Z,2452.00
2022-10-05T07:49:14.877Z,2564.00
2022-10-05T07:50:14.906Z,2580.00
2022-10-05T07:51:14.879Z,2560.00
2022-10-05T07:52:14.849Z,1896.00
2022-10-05T07:53:14.838Z,1804.00
2022-10-05T07:54:14.831Z,1428.00
2022-10-05T07:55:14.824Z,1164.00
2022-10-05T07:56:14.875Z,1032.00
2022-10-05T07:57:14.809Z,1016.00
2022-10-05T07:58:14.802Z,964.00
2022-10-05T07:59:14.806Z,928.00
2022-10-05T08:00:14.858Z,892.00
2022-10-05T08:01:14.803Z,912.00
2022-10-05T08:02:14.912Z,952.00
2022-10-05T08:03:14.836Z,992.00
2022-10-05T08:04:14.762Z,992.00
2022-10-05T08:05:14.756Z,1052.00
2022-10-05T08:06:14.769Z,1080.00
2022-10-05T08:07:14.796Z,1092.00
2022-10-05T08:08:16.856Z,1132.00
2022-10-05T08:09:14.715Z,1188.00
2022-10-05T08:10:14.723Z,1144.00
2022-10-05T08:11:14.739Z,1168.00
2022-10-05T08:12:14.728Z,1248.00
2022-10-05T08:13:14.688Z,1236.00
2022-10-05T08:14:14.678Z,1148.00
2022-10-05T08:15:14.673Z,1212.00
2022-10-05T08:16:14.858Z,1156.00
2022-10-05T08:17:14.651Z,1124.00
2022-10-05T08:18:14.635Z,1048.00
2022-10-05T08:19:15.642Z,1140.00
2022-10-05T08:20:14.629Z,1096.00
2022-10-05T08:21:14.640Z,1124.00
2022-10-05T08:22:14.613Z,1068.00
2022-10-05T08:23:14.606Z,1012.00
2022-10-05T08:24:14.599Z,1004.00
2022-10-05T08:25:14.603Z,968.00
2022-10-05T08:26:14.628Z,940.00
2022-10-05T08:27:14.603Z,960.00
2022-10-05T08:28:14.591Z,956.00
2022-10-05T08:29:14.564Z,944.00
2022-10-05T08:30:14.556Z,920.00
2022-10-05T08:31:14.625Z,912.00
2022-10-05T08:32:14.552Z,952.00
2022-10-05T08:33:14.555Z,964.00
2022-10-05T08:34:14.526Z,952.00
2022-10-05T08:35:14.521Z,916.00
2022-10-05T08:36:14.515Z,896.00
2022-10-05T08:37:14.527Z,888.00
2022-10-05T08:38:14.495Z,900.00
2022-10-05T08:39:14.483Z,868.00
2022-10-05T08:40:14.485Z,844.00
2022-10-05T08:41:14.505Z,844.00
2022-10-05T08:42:14.452Z,812.00
2022-10-05T08:43:14.454Z,816.00
2022-10-05T08:44:14.450Z,812.00
2022-10-05T08:45:14.443Z,792.00
2022-10-05T08:46:14.486Z,792.00
2022-10-05T08:47:14.451Z,824.00
2022-10-05T08:48:14.418Z,828.00
2022-10-05T08:49:14.410Z,828.00
2022-10-05T08:50:14.403Z,788.00
2022-10-05T08:51:14.449Z,788.00
2022-10-05T08:52:14.380Z,804.00
2022-10-05T08:53:14.383Z,824.00
2022-10-05T08:54:14.370Z,816.00
2022-10-05T08:55:14.367Z,808.00
2022-10-05T08:56:19.053Z,828.00
2022-10-05T08:57:16.352Z,804.00
2022-10-05T08:58:14.347Z,836.00
2022-10-05T08:59:14.327Z,924.00
2022-10-05T09:00:14.328Z,976.00
2022-10-05T09:01:14.425Z,1036.00
2022-10-05T09:02:14.342Z,1068.00
2022-10-05T09:03:14.305Z,1116.00
2022-10-05T09:04:14.295Z,1172.00
2022-10-05T09:05:14.286Z,1216.00
2022-10-05T09:06:14.312Z,1232.00
2022-10-05T09:07:14.271Z,1256.00
2022-10-05T09:08:14.264Z,1256.00
2022-10-05T09:09:14.257Z,1228.00
2022-10-05T09:10:14.249Z,1232.00
2022-10-05T09:11:14.275Z,1220.00
2022-10-05T09:12:14.238Z,1232.00
2022-10-05T09:13:14.228Z,1220.00
2022-10-05T09:14:14.222Z,1244.00
2022-10-05T09:15:25.516Z,1240.00
2022-10-05T09:16:16.733Z,1252.00
2022-10-05T09:17:14.215Z,1272.00
2022-10-05T09:18:14.194Z,1280.00
2022-10-05T09:19:14.177Z,1272.00
2022-10-05T09:20:14.176Z,1280.00
2022-10-05T09:21:14.195Z,1296.00
2022-10-05T09:22:14.158Z,1272.00
2022-10-05T09:23:14.149Z,1324.00
2022-10-05T09:24:14.144Z,1280.00
2022-10-05T09:25:14.140Z,1308.00
2022-10-05T09:26:14.157Z,1348.00
2022-10-05T09:27:14.113Z,1480.00
2022-10-05T09:28:14.185Z,1528.00
2022-10-05T09:29:14.100Z,1596.00
2022-10-05T09:30:14.087Z,1592.00
2022-10-05T09:31:15.138Z,1796.00
2022-10-05T09:32:16.439Z,1872.00
2022-10-05T09:33:15.073Z,1740.00
2022-10-05T09:34:14.061Z,1700.00
2022-10-05T09:35:14.058Z,1704.00
2022-10-05T09:36:14.062Z,1712.00
2022-10-05T09:37:14.065Z,1736.00
2022-10-05T09:38:14.031Z,1744.00
2022-10-05T09:39:14.028Z,1904.00
2022-10-05T09:40:14.022Z,1920.00
2022-10-05T09:41:14.007Z,1768.00
2022-10-05T09:42:14.025Z,1744.00
2022-10-05T09:43:13.994Z,2576.00
2022-10-05T09:44:13.989Z,1988.00
2022-10-05T09:45:16.611Z,1732.00
2022-10-05T09:46:16.041Z,2784.00
2022-10-05T09:47:14.208Z,1816.00
2022-10-05T09:48:13.949Z,3024.00
2022-10-05T09:49:13.941Z,2212.00
2022-10-05T09:50:13.967Z,2516.00
2022-10-05T09:51:13.931Z,2048.00
2022-10-05T09:52:18.606Z,2240.00
2022-10-05T09:53:15.910Z,2040.00
2022-10-05T09:54:13.912Z,2760.00
2022-10-05T09:55:13.889Z,1968.00
2022-10-05T09:56:13.884Z,1776.00
2022-10-05T09:57:13.903Z,1668.00
2022-10-05T09:58:13.874Z,1616.00
2022-10-05T09:59:20.138Z,2320.00
2022-10-05T10:00:13.860Z,1736.00
2022-10-05T10:01:32.502Z,1608.00
2022-10-05T10:02:16.019Z,1824.00
2022-10-05T10:03:13.896Z,1832.00
2022-10-05T10:04:13.821Z,1800.00
2022-10-05T10:05:13.818Z,1932.00
2022-10-05T10:06:13.813Z,1984.00
2022-10-05T10:07:13.827Z,2728.00
2022-10-05T10:08:13.806Z,1808.00
2022-10-05T10:09:13.787Z,1760.00
2022-10-05T10:10:13.773Z,1780.00
2022-10-05T10:11:13.769Z,2060.00
2022-10-05T10:12:13.789Z,1984.00
2022-10-05T10:13:13.755Z,1628.00
2022-10-05T10:14:13.750Z,1672.00
2022-10-05T10:15:13.743Z,1600.00
2022-10-05T10:16:13.785Z,1564.00
2022-10-05T10:17:13.747Z,1592.00
2022-10-05T10:18:13.713Z,1848.00
2022-10-05T10:19:13.730Z,1640.00
2022-10-05T10:20:13.695Z,1588.00
2022-10-05T10:21:13.688Z,1620.00
2022-10-05T10:22:13.709Z,1628.00
2022-10-05T10:23:13.761Z,2376.00
2022-10-05T10:24:13.662Z,1608.00
2022-10-05T10:25:13.665Z,1544.00
2022-10-05T10:26:13.660Z,1544.00
2022-10-05T10:27:13.666Z,1712.00
2022-10-05T10:28:13.740Z,1616.00
2022-10-05T10:29:13.700Z,2016.00
2022-10-05T10:30:13.613Z,1664.00
2022-10-05T10:31:13.667Z,2552.00
2022-10-05T10:32:13.629Z,1536.00
2022-10-05T10:33:13.606Z,1536.00
2022-10-05T10:34:13.598Z,1512.00
2022-10-05T10:35:13.609Z,1568.00
2022-10-05T10:36:13.575Z,1768.00
2022-10-05T10:37:13.592Z,1596.00
2022-10-05T10:38:13.560Z,1656.00
2022-10-05T10:39:13.544Z,2688.00
2022-10-05T10:40:13.548Z,1668.00
2022-10-05T10:41:13.535Z,1836.00
2022-10-05T10:42:13.551Z,1704.00
2022-10-05T10:43:13.530Z,2148.00
2022-10-05T10:44:13.519Z,1660.00
2022-10-05T10:45:13.509Z,1680.00
2022-10-05T10:46:13.559Z,1640.00
2022-10-05T10:47:13.515Z,1900.00
2022-10-05T10:48:13.485Z,1756.00
2022-10-05T10:49:13.475Z,1660.00
2022-10-05T10:50:13.468Z,2180.00
2022-10-05T10:51:13.465Z,1760.00
2022-10-05T10:52:13.474Z,1700.00
2022-10-05T10:53:13.445Z,1668.00
2022-10-05T10:54:13.440Z,1648.00
2022-10-05T10:55:13.439Z,1804.00
2022-10-05T10:56:13.444Z,1760.00
2022-10-05T10:57:13.416Z,1932.00
2022-10-05T10:58:16.090Z,2768.00
2022-10-05T10:59:14.398Z,2744.00
2022-10-05T11:00:13.389Z,2748.00
2022-10-05T11:01:13.397Z,2720.00
2022-10-05T11:02:13.445Z,1652.00
2022-10-05T11:03:13.458Z,2192.00
2022-10-05T11:04:13.353Z,1676.00
2022-10-05T11:05:13.357Z,2120.00
2022-10-05T11:06:13.329Z,1460.00
2022-10-05T11:07:14.337Z,1696.00
2022-10-05T11:08:13.356Z,1940.00
2022-10-05T11:09:13.320Z,2504.00
2022-10-05T11:10:13.311Z,2452.00
2022-10-05T11:11:13.304Z,2304.00
2022-10-05T11:12:13.296Z,1280.00
2022-10-05T11:13:13.311Z,1456.00
2022-10-05T11:14:13.275Z,1600.00
2022-10-05T11:15:13.269Z,1436.00
2022-10-05T11:16:15.888Z,1920.00
2022-10-05T11:17:14.265Z,1500.00
2022-10-05T11:18:13.275Z,1660.00
2022-10-05T11:19:13.236Z,1788.00
2022-10-05T11:20:13.232Z,1692.00
2022-10-05T11:21:13.230Z,1240.00
2022-10-05T11:22:13.219Z,2396.00
2022-10-05T11:23:13.230Z,2432.00
2022-10-05T11:24:13.202Z,2368.00
2022-10-05T11:25:13.187Z,2364.00
2022-10-05T11:26:13.182Z,1496.00
2022-10-05T11:27:13.184Z,2244.00
2022-10-05T11:28:13.235Z,2224.00
2022-10-05T11:29:13.170Z,1948.00
2022-10-05T11:30:13.159Z,2180.00
2022-10-05T11:31:13.204Z,2180.00
2022-10-05T11:32:13.140Z,2148.00
2022-10-05T11:33:13.163Z,2132.00
2022-10-05T11:34:13.120Z,2132.00
2022-10-05T11:35:13.111Z,2108.00
2022-10-05T11:36:13.106Z,2140.00
2022-10-05T11:37:13.101Z,1940.00
2022-10-05T11:38:13.368Z,2088.00
2022-10-05T11:39:13.108Z,2032.00
2022-10-05T11:40:13.079Z,2108.00
2022-10-05T11:41:13.077Z,2164.00
2022-10-05T11:42:13.064Z,1428.00
2022-10-05T11:43:13.084Z,2060.00
2022-10-05T11:44:13.057Z,2064.00
2022-10-05T11:45:13.046Z,2076.00
2022-10-05T11:46:13.064Z,2072.00
2022-10-05T11:47:13.027Z,2076.00
2022-10-05T11:48:13.049Z,2076.00
2022-10-05T11:49:13.020Z,2056.00
2022-10-05T11:50:13.028Z,2056.00
2022-10-05T11:51:13.006Z,2028.00
2022-10-05T11:52:12.996Z,1868.00
2022-10-05T11:53:13.037Z,2000.00
2022-10-05T11:54:12.978Z,2012.00
2022-10-05T11:55:12.983Z,1896.00
2022-10-05T11:56:12.978Z,1880.00
2022-10-05T11:57:12.978Z,1888.00
2022-10-05T11:58:12.987Z,1840.00
2022-10-05T11:59:12.946Z,1840.00
2022-10-05T12:00:12.942Z,1880.00
2022-10-05T12:01:12.923Z,1784.00
2022-10-05T12:02:12.911Z,1812.00
2022-10-05T12:03:13.035Z,1920.00
2022-10-05T12:04:12.932Z,1948.00
2022-10-05T12:05:12.890Z,1884.00
2022-10-05T12:06:12.890Z,1988.00
2022-10-05T12:07:12.876Z,1976.00
2022-10-05T12:08:12.910Z,1968.00
2022-10-05T12:09:12.858Z,1920.00
2022-10-05T12:10:13.916Z,1936.00
2022-10-05T12:11:12.845Z,1960.00
2022-10-05T12:12:12.855Z,1912.00
2022-10-05T12:13:12.851Z,1884.00
2022-10-05T12:14:12.835Z,1904.00
2022-10-05T12:15:12.817Z,1880.00
2022-10-05T12:16:12.858Z,1920.00
2022-10-05T12:17:12.801Z,1892.00
2022-10-05T12:18:13.819Z,1932.00
2022-10-05T12:19:12.788Z,1628.00
2022-10-05T12:20:12.803Z,1860.00
2022-10-05T12:21:12.764Z,1952.00
2022-10-05T12:22:12.765Z,1920.00
2022-10-05T12:23:12.754Z,1904.00
2022-10-05T12:24:12.770Z,1908.00
2022-10-05T12:25:12.773Z,1904.00
2022-10-05T12:26:12.732Z,1892.00
2022-10-05T12:27:12.724Z,1912.00
2022-10-05T12:28:12.833Z,1920.00
2022-10-05T12:29:12.740Z,1912.00
2022-10-05T12:30:12.759Z,1916.00
2022-10-05T12:31:12.827Z,1892.00
2022-10-05T12:32:12.762Z,1904.00
2022-10-05T12:33:12.676Z,1916.00
2022-10-05T12:34:12.710Z,1912.00
2022-10-05T12:35:12.673Z,1900.00
2022-10-05T12:36:12.660Z,1904.00
2022-10-05T12:37:12.685Z,1904.00
2022-10-05T12:38:12.635Z,1904.00
2022-10-05T12:39:12.659Z,1892.00